Time;durP1;ratioP1;P1;durP2;ratioP2;P2;SDS_P1;SDS_P2;PMS_P1;PMS_P2;Temp;Humidity;BMP_temperature;BMP_pressure;BME280_temperature;BME280_humidity;BME280_pressure;Samples;Min_cycle;Max_cycle;Signal;HPM_P1;HPM_P2
2022/05/25 00:01:49;;;;;;;1.17;0.30;;;18.20;99.90;;;;;;7391179;19;20146;-77
2022/05/25 00:04:16;;;;;;;0.40;0.40;;;18.10;99.90;;;;;;7389353;19;20146;-77
2022/05/25 00:06:42;;;;;;;3.40;0.30;;;18.20;99.90;;;;;;7390663;19;20142;-76
2022/05/25 00:09:08;;;;;;;0.55;0.40;;;18.20;99.90;;;;;;7392508;19;20557;-77
2022/05/25 00:11:34;;;;;;;0.45;0.40;;;18.20;99.90;;;;;;7394107;19;20154;-77
2022/05/25 00:14:01;;;;;;;0.57;0.57;;;18.20;99.90;;;;;;7390682;19;20148;-76
2022/05/25 00:16:27;;;;;;;0.50;0.38;;;18.20;99.90;;;;;;7390350;19;20137;-77
2022/05/25 00:21:37;;;;;;;0.20;0.20;;;18.20;99.90;;;;;;7391168;19;20521;-76
2022/05/25 00:24:03;;;;;;;1.42;0.40;;;18.20;99.90;;;;;;7389992;19;20135;-76
2022/05/25 00:26:32;;;;;;;2.20;0.50;;;18.20;99.90;;;;;;7396320;19;20153;-76
2022/05/25 00:28:58;;;;;;;0.95;0.47;;;18.20;99.90;;;;;;7394153;19;20143;-76
2022/05/25 00:31:23;;;;;;;2.05;0.52;;;18.20;99.90;;;;;;7392081;19;20577;-76
2022/05/25 00:33:49;;;;;;;2.53;0.60;;;18.20;99.90;;;;;;7389485;19;20226;-77
2022/05/25 00:36:16;;;;;;;1.23;0.63;;;18.30;99.90;;;;;;7393533;19;20498;-76
2022/05/25 00:38:42;;;;;;;0.95;0.40;;;18.20;99.90;;;;;;7389274;19;20169;-76
2022/05/25 00:41:08;;;;;;;1.08;0.40;;;18.10;99.90;;;;;;7390143;19;20158;-76
2022/05/25 00:43:33;;;;;;;0.30;0.30;;;18.20;99.90;;;;;;7390138;19;20135;-77
2022/05/25 00:46:05;;;;;;;0.43;0.40;;;18.10;99.90;;;;;;7391305;19;20147;-77
2022/05/25 00:48:37;;;;;;;0.65;0.47;;;17.90;99.90;;;;;;7389094;19;20177;-76
2022/05/25 00:51:21;;;;;;;0.40;0.30;;;17.90;99.90;;;;;;7393961;19;20577;-76
2022/05/25 00:53:59;;;;;;;0.30;0.30;;;18.00;99.90;;;;;;7393091;19;20155;-77
2022/05/25 00:56:26;;;;;;;0.45;0.45;;;18.00;99.90;;;;;;7391229;19;20122;-76
2022/05/25 00:59:09;;;;;;;1.08;0.35;;;18.00;99.90;;;;;;7395515;19;20138;-76
2022/05/25 01:01:35;;;;;;;0.60;0.30;;;18.00;99.90;;;;;;7394757;19;20123;-78
2022/05/25 01:04:01;;;;;;;1.88;0.40;;;18.00;99.90;;;;;;7387305;19;20177;-77
2022/05/25 01:07:04;;;;;;;0.30;0.30;;;17.90;99.90;;;;;;7392363;19;20130;-77
2022/05/25 01:09:41;;;;;;;0.60;0.40;;;17.90;99.90;;;;;;7388149;19;20150;-77
2022/05/25 01:12:35;;;;;;;0.40;0.40;;;17.80;99.90;;;;;;7390612;19;20130;-77
2022/05/25 01:15:25;;;;;;;0.50;0.50;;;18.00;99.90;;;;;;7389243;19;20130;-76
2022/05/25 01:18:30;;;;;;;0.63;0.45;;;18.00;99.90;;;;;;7390084;19;20164;-76
2022/05/25 01:21:05;;;;;;;0.30;0.28;;;18.00;99.90;;;;;;7395087;19;20135;-77
2022/05/25 01:24:09;;;;;;;1.15;0.30;;;17.90;99.90;;;;;;7389376;19;20138;-76
2022/05/25 01:26:53;;;;;;;0.63;0.50;;;17.90;99.90;;;;;;7387650;19;20210;-75
2022/05/25 01:29:22;;;;;;;0.63;0.40;;;17.90;99.90;;;;;;7388475;19;20146;-75
2022/05/25 01:31:52;;;;;;;0.45;0.45;;;18.00;99.90;;;;;;7387970;19;20206;-76
2022/05/25 01:34:49;;;;;;;2.30;0.60;;;18.00;99.90;;;;;;7389986;19;20966;-75
2022/05/25 01:37:56;;;;;;;1.75;0.40;;;18.00;99.90;;;;;;7390605;19;20131;-77
2022/05/25 01:40:32;;;;;;;0.68;0.40;;;17.90;99.90;;;;;;7386206;19;20150;-77
2022/05/25 01:43:12;;;;;;;0.63;0.50;;;17.70;99.90;;;;;;7390872;19;20193;-77
2022/05/25 01:45:55;;;;;;;0.45;0.40;;;17.70;99.90;;;;;;7391100;19;20138;-76
2022/05/25 01:48:24;;;;;;;2.20;0.52;;;17.80;99.90;;;;;;7387953;19;20142;-78
2022/05/25 01:50:56;;;;;;;0.32;0.30;;;17.80;99.90;;;;;;7386584;19;20496;-76
2022/05/25 01:53:40;;;;;;;0.80;0.40;;;17.90;99.90;;;;;;7393036;19;20190;-76
2022/05/25 01:56:08;;;;;;;0.77;0.73;;;17.80;99.90;;;;;;7396182;19;20133;-77
2022/05/25 01:58:39;;;;;;;0.88;0.30;;;17.70;99.90;;;;;;7395165;19;20138;-77
2022/05/25 02:01:07;;;;;;;0.30;0.30;;;17.80;99.90;;;;;;7398612;19;20606;-78
2022/05/25 02:06:37;;;;;;;0.52;0.30;;;17.70;99.90;;;;;;7393984;19;20168;-78
2022/05/25 02:09:16;;;;;;;0.80;0.32;;;17.70;99.90;;;;;;7398893;19;20142;-76
2022/05/25 02:11:48;;;;;;;0.43;0.40;;;17.80;99.90;;;;;;7393703;19;20149;-76
2022/05/25 02:14:32;;;;;;;0.85;0.40;;;17.90;99.90;;;;;;7394083;19;20464;-78
2022/05/25 02:17:03;;;;;;;0.45;0.40;;;17.70;99.90;;;;;;7394643;19;20198;-75
2022/05/25 02:19:51;;;;;;;0.25;0.25;;;17.60;99.90;;;;;;7397424;19;20496;-75
2022/05/25 02:22:21;;;;;;;0.55;0.40;;;17.60;99.90;;;;;;7396097;19;20151;-77
2022/05/25 02:24:54;;;;;;;0.68;0.40;;;17.80;99.90;;;;;;7397605;19;20609;-77
2022/05/25 02:27:42;;;;;;;0.30;0.30;;;17.70;99.90;;;;;;7395176;19;20142;-76
2022/05/25 02:30:16;;;;;;;2.45;0.30;;;17.70;99.90;;;;;;7395091;19;20585;-77
2022/05/25 02:32:52;;;;;;;0.85;0.50;;;17.70;99.90;;;;;;7396950;19;20404;-76
2022/05/25 02:35:21;;;;;;;0.35;0.30;;;17.70;99.90;;;;;;7396313;19;20146;-76
2022/05/25 02:37:50;;;;;;;0.55;0.38;;;17.70;99.90;;;;;;7392055;19;20127;-77
2022/05/25 02:40:15;;;;;;;1.10;0.52;;;17.60;99.90;;;;;;7397798;19;20126;-77
2022/05/25 02:42:42;;;;;;;0.40;0.40;;;17.60;99.90;;;;;;7397085;19;20134;-76
2022/05/25 02:45:11;;;;;;;0.40;0.40;;;17.60;99.90;;;;;;7392397;19;20142;-75
2022/05/25 02:47:38;;;;;;;0.35;0.35;;;17.60;99.90;;;;;;7395378;19;20213;-75
2022/05/25 02:50:04;;;;;;;2.20;0.57;;;17.50;99.90;;;;;;7391895;19;20554;-76
2022/05/25 02:52:30;;;;;;;0.82;0.30;;;17.40;99.90;;;;;;7392972;19;20492;-75
2022/05/25 02:54:56;;;;;;;1.85;0.50;;;17.30;99.90;;;;;;7394783;19;20131;-77
2022/05/25 02:57:22;;;;;;;1.58;0.40;;;17.50;99.90;;;;;;7394229;19;20137;-76
2022/05/25 02:59:48;;;;;;;0.20;0.20;;;17.50;99.90;;;;;;7400807;19;20142;-77
2022/05/25 03:02:14;;;;;;;1.08;0.45;;;17.50;99.90;;;;;;7394596;19;20146;-78
2022/05/25 03:04:40;;;;;;;0.30;0.30;;;17.30;99.90;;;;;;7391864;19;20174;-75
2022/05/25 03:07:07;;;;;;;1.10;0.35;;;17.30;99.90;;;;;;7391060;19;20182;-75
2022/05/25 03:09:35;;;;;;;0.30;0.30;;;17.00;99.90;;;;;;7391704;19;20146;-77
2022/05/25 03:12:02;;;;;;;0.40;0.40;;;17.00;99.90;;;;;;7393847;19;20131;-75
2022/05/25 03:14:29;;;;;;;0.95;0.40;;;17.30;99.90;;;;;;7393425;19;20238;-75
2022/05/25 03:16:55;;;;;;;0.70;0.32;;;17.40;99.90;;;;;;7394838;19;20126;-76
2022/05/25 03:19:21;;;;;;;0.47;0.40;;;17.50;99.90;;;;;;7393514;19;20150;-76
2022/05/25 03:21:48;;;;;;;0.98;0.50;;;17.40;99.90;;;;;;7391264;19;20134;-76
2022/05/25 03:24:14;;;;;;;1.98;0.50;;;17.40;99.90;;;;;;7389824;19;20146;-77
2022/05/25 03:26:40;;;;;;;0.40;0.30;;;17.40;99.90;;;;;;7392465;19;20119;-75
2022/05/25 03:29:06;;;;;;;2.67;0.40;;;17.20;99.90;;;;;;7392835;19;20594;-75
2022/05/25 03:31:32;;;;;;;1.58;0.50;;;17.00;99.90;;;;;;7395857;19;20134;-76
2022/05/25 03:33:58;;;;;;;0.30;0.30;;;17.10;99.90;;;;;;7393065;19;20127;-76
2022/05/25 03:36:24;;;;;;;0.93;0.40;;;17.20;99.90;;;;;;7392507;19;20254;-76
2022/05/25 03:38:50;;;;;;;0.98;0.50;;;17.30;99.90;;;;;;7392601;19;20486;-77
2022/05/25 03:41:17;;;;;;;1.70;0.50;;;17.30;99.90;;;;;;7391090;19;20505;-74
2022/05/25 03:43:44;;;;;;;0.30;0.30;;;17.30;99.90;;;;;;7389478;19;20127;-75
2022/05/25 03:46:10;;;;;;;0.40;0.40;;;17.30;99.90;;;;;;7390775;19;20134;-75
2022/05/25 03:48:36;;;;;;;0.55;0.30;;;17.40;99.90;;;;;;7392100;19;20134;-77
2022/05/25 03:51:02;;;;;;;0.40;0.40;;;17.40;99.90;;;;;;7393081;19;20708;-77
2022/05/25 03:53:28;;;;;;;1.38;0.68;;;17.40;99.90;;;;;;7390889;19;20135;-77
2022/05/25 03:55:54;;;;;;;0.30;0.30;;;17.40;99.90;;;;;;7390876;19;20127;-75
2022/05/25 03:58:20;;;;;;;1.08;0.40;;;17.30;99.90;;;;;;7395089;19;20135;-78
2022/05/25 04:00:46;;;;;;;3.50;0.60;;;17.30;99.90;;;;;;7395473;19;20166;-77
2022/05/25 04:03:14;;;;;;;0.60;0.60;;;17.30;99.90;;;;;;7388868;19;20171;-76
2022/05/25 04:05:40;;;;;;;0.38;0.38;;;17.30;99.90;;;;;;7392452;19;20138;-76
2022/05/25 04:08:07;;;;;;;0.85;0.50;;;17.30;99.90;;;;;;7390775;19;20134;-77
2022/05/25 04:10:33;;;;;;;0.40;0.40;;;17.40;99.90;;;;;;7389669;19;20135;-76
2022/05/25 04:12:58;;;;;;;2.45;0.60;;;17.40;99.90;;;;;;7389442;19;20488;-77
2022/05/25 04:15:27;;;;;;;0.50;0.50;;;17.40;99.90;;;;;;7389138;19;20211;-75
2022/05/25 04:17:53;;;;;;;0.65;0.50;;;17.40;99.90;;;;;;7389214;19;20131;-77
2022/05/25 04:20:20;;;;;;;0.65;0.47;;;17.40;99.90;;;;;;7390124;19;20135;-76
2022/05/25 04:22:47;;;;;;;0.40;0.40;;;17.10;99.90;;;;;;7394217;19;20157;-74
2022/05/25 04:25:15;;;;;;;2.67;0.50;;;17.20;99.90;;;;;;7391719;19;20818;-74
2022/05/25 04:27:43;;;;;;;1.15;0.50;;;17.20;99.90;;;;;;7391260;19;20516;-80
2022/05/25 04:30:11;;;;;;;2.05;0.40;;;17.30;99.90;;;;;;7391762;19;20158;-77
2022/05/25 04:32:37;;;;;;;0.98;0.32;;;17.40;99.90;;;;;;7391331;19;20221;-79
2022/05/25 04:35:03;;;;;;;0.43;0.40;;;17.30;99.90;;;;;;7391879;19;20134;-75
2022/05/25 04:40:14;;;;;;;2.50;0.50;;;17.20;99.90;;;;;;7396577;19;20139;-76
2022/05/25 04:42:43;;;;;;;0.65;0.40;;;17.30;99.90;;;;;;7390689;19;20135;-74
2022/05/25 04:45:10;;;;;;;2.05;0.40;;;17.40;99.90;;;;;;7391002;19;20578;-77
2022/05/25 04:47:37;;;;;;;0.63;0.60;;;17.50;99.90;;;;;;7391326;19;20956;-77
2022/05/25 04:50:07;;;;;;;0.43;0.40;;;17.50;99.90;;;;;;7390733;19;20145;-74
2022/05/25 04:52:37;;;;;;;0.40;0.40;;;17.20;99.90;;;;;;7391896;19;20719;-76
2022/05/25 04:55:07;;;;;;;0.65;0.50;;;17.20;99.90;;;;;;7396550;19;20138;-76
2022/05/25 04:57:33;;;;;;;1.20;0.50;;;17.20;99.90;;;;;;7392477;19;20138;-77
2022/05/25 05:00:01;;;;;;;1.08;0.60;;;17.30;99.90;;;;;;7391620;19;20151;-77
2022/05/25 05:02:29;;;;;;;2.92;0.52;;;17.30;99.90;;;;;;7391069;19;20486;-77
2022/05/25 05:04:55;;;;;;;1.42;0.63;;;17.40;99.90;;;;;;7388990;19;20603;-77
2022/05/25 05:07:32;;;;;;;1.52;0.90;;;17.20;99.90;;;;;;7392466;19;20164;-77
2022/05/25 05:10:01;;;;;;;3.03;0.57;;;16.80;99.90;;;;;;7393480;19;20146;-75
2022/05/25 05:12:28;;;;;;;0.90;0.63;;;17.00;99.90;;;;;;7395148;19;20139;-75
2022/05/25 05:14:54;;;;;;;2.80;0.90;;;17.20;99.90;;;;;;7395390;19;20482;-78
2022/05/25 05:17:20;;;;;;;1.08;0.60;;;17.40;99.90;;;;;;7386679;19;20156;-78
2022/05/25 05:19:46;;;;;;;2.13;0.52;;;17.30;99.90;;;;;;7387850;19;20594;-74
2022/05/25 05:22:12;;;;;;;2.38;0.75;;;17.20;99.90;;;;;;7388153;19;20131;-74
2022/05/25 05:24:37;;;;;;;0.88;0.52;;;17.10;99.90;;;;;;7387752;19;20168;-79
2022/05/25 05:27:06;;;;;;;1.17;0.52;;;16.90;99.90;;;;;;7389524;19;20130;-78
2022/05/25 05:29:32;;;;;;;2.40;0.60;;;16.90;99.90;;;;;;7394108;19;20210;-77
2022/05/25 05:31:58;;;;;;;2.83;0.90;;;17.00;99.90;;;;;;7386213;19;20154;-79
2022/05/25 05:34:28;;;;;;;2.28;0.57;;;17.20;99.90;;;;;;7393377;19;20146;-72
2022/05/25 05:37:02;;;;;;;0.50;0.50;;;17.40;99.90;;;;;;7394607;19;20138;-76
2022/05/25 05:39:33;;;;;;;1.27;0.60;;;17.50;99.90;;;;;;7395596;19;20130;-74
2022/05/25 05:42:05;;;;;;;0.60;0.50;;;17.50;99.90;;;;;;7396873;19;20231;-74
2022/05/25 05:44:38;;;;;;;0.73;0.47;;;17.50;99.90;;;;;;7400300;19;20126;-75
2022/05/25 05:47:10;;;;;;;2.60;0.70;;;17.50;99.90;;;;;;7399207;19;20165;-74
2022/05/25 05:49:39;;;;;;;2.63;0.60;;;17.30;99.90;;;;;;7395922;19;20131;-74
2022/05/25 05:52:05;;;;;;;1.25;0.70;;;17.40;99.90;;;;;;7398322;19;20131;-74
2022/05/25 05:54:32;;;;;;;1.75;0.77;;;17.30;99.90;;;;;;7398500;19;20139;-73
2022/05/25 05:56:58;;;;;;;0.70;0.50;;;17.50;99.90;;;;;;7395511;19;20147;-73
2022/05/25 05:59:24;;;;;;;1.60;0.73;;;17.50;99.90;;;;;;7397231;19;20161;-74
2022/05/25 06:01:50;;;;;;;2.10;0.70;;;17.50;99.90;;;;;;7395528;19;20146;-76
2022/05/25 06:04:16;;;;;;;1.50;0.70;;;17.40;99.90;;;;;;7395282;19;20166;-74
2022/05/25 06:06:42;;;;;;;1.23;0.65;;;17.50;99.90;;;;;;7394912;19;20604;-76
2022/05/25 06:09:08;;;;;;;1.27;0.45;;;17.60;99.90;;;;;;7395163;19;20130;-76
2022/05/25 06:11:38;;;;;;;1.20;0.63;;;17.80;99.90;;;;;;7398790;19;20119;-78
2022/05/25 06:14:04;;;;;;;2.33;0.70;;;18.00;99.90;;;;;;7392393;19;20169;-74
2022/05/25 06:19:27;;;;;;;2.75;1.15;;;18.10;99.90;;;;;;7399938;19;21009;-74
2022/05/25 06:22:07;;;;;;;3.17;0.95;;;18.50;99.90;;;;;;7397244;19;20162;-73
2022/05/25 06:24:48;;;;;;;3.58;0.75;;;18.40;99.90;;;;;;7396569;19;20134;-74
2022/05/25 06:27:14;;;;;;;2.03;1.42;;;18.40;99.90;;;;;;7390006;19;20392;-75
2022/05/25 06:29:43;;;;;;;2.50;1.20;;;18.50;99.90;;;;;;7389654;19;20235;-74
2022/05/25 06:32:11;;;;;;;1.65;0.60;;;18.60;99.90;;;;;;7368655;19;20151;-74
2022/05/25 06:34:39;;;;;;;1.92;0.70;;;19.20;99.90;;;;;;7396837;19;20135;-75
2022/05/25 06:37:05;;;;;;;3.00;0.93;;;19.30;99.90;;;;;;7392404;19;20137;-73
2022/05/25 06:39:36;;;;;;;1.77;0.75;;;19.50;99.90;;;;;;7397272;19;20472;-78
2022/05/25 06:42:02;;;;;;;1.50;1.00;;;19.40;99.90;;;;;;7391893;19;20162;-76
2022/05/25 06:44:28;;;;;;;2.65;0.60;;;19.30;99.90;;;;;;7390814;19;20138;-78
2022/05/25 06:46:54;;;;;;;0.63;0.50;;;19.10;99.90;;;;;;7393042;19;20462;-75
2022/05/25 06:49:20;;;;;;;1.13;0.60;;;19.20;99.90;;;;;;7397345;19;20134;-76
2022/05/25 06:51:46;;;;;;;0.75;0.60;;;19.00;99.90;;;;;;7395218;19;20134;-76
2022/05/25 06:54:17;;;;;;;0.75;0.55;;;18.90;99.90;;;;;;7393522;19;20483;-75
2022/05/25 06:56:43;;;;;;;1.55;0.90;;;18.80;99.90;;;;;;7393834;19;20127;-78
2022/05/25 06:59:11;;;;;;;1.83;0.75;;;18.70;99.90;;;;;;7389881;19;20167;-75
2022/05/25 07:01:39;;;;;;;1.40;0.63;;;18.60;99.90;;;;;;7393101;19;20137;-75
2022/05/25 07:04:07;;;;;;;2.75;0.80;;;18.70;99.90;;;;;;7393667;19;20147;-78
2022/05/25 07:06:38;;;;;;;0.90;0.60;;;18.80;99.90;;;;;;7397115;19;20157;-77
2022/05/25 07:09:06;;;;;;;2.53;0.70;;;18.80;99.90;;;;;;7393741;19;20137;-76
2022/05/25 07:11:33;;;;;;;3.25;0.80;;;18.90;99.90;;;;;;7395837;19;20135;-77
2022/05/25 07:13:59;;;;;;;2.45;0.80;;;19.30;99.90;;;;;;7391672;19;20157;-76
2022/05/25 07:16:25;;;;;;;2.15;0.90;;;19.90;99.90;;;;;;7393035;19;20198;-77
2022/05/25 07:18:51;;;;;;;0.85;0.68;;;20.60;99.90;;;;;;7392904;19;20123;-75
2022/05/25 07:21:27;;;;;;;2.58;0.70;;;21.30;99.50;;;;;;7392600;19;20127;-76
2022/05/25 07:23:56;;;;;;;0.98;0.50;;;21.60;98.50;;;;;;7392355;19;20197;-74
2022/05/25 07:26:25;;;;;;;1.27;0.60;;;21.50;98.00;;;;;;7393092;19;20149;-77
2022/05/25 07:28:52;;;;;;;0.70;0.60;;;21.30;98.00;;;;;;7394049;19;20194;-78
2022/05/25 07:31:23;;;;;;;0.88;0.60;;;21.70;97.40;;;;;;7393484;19;20133;-79
2022/05/25 07:34:10;;;;;;;1.15;0.57;;;22.00;97.10;;;;;;7392916;19;20131;-75
2022/05/25 07:36:38;;;;;;;0.80;0.52;;;21.90;96.20;;;;;;7394359;19;20147;-75
2022/05/25 07:39:13;;;;;;;1.48;0.60;;;22.10;96.30;;;;;;7389245;19;20133;-76
2022/05/25 07:41:42;;;;;;;1.85;0.60;;;22.40;96.40;;;;;;7396033;19;20127;-75
2022/05/25 07:44:10;;;;;;;1.45;0.60;;;22.90;95.60;;;;;;7390657;19;20143;-74
2022/05/25 07:46:36;;;;;;;1.70;0.60;;;23.20;94.60;;;;;;7389838;19;21107;-74
2022/05/25 07:49:02;;;;;;;2.03;0.60;;;23.10;94.50;;;;;;7394512;19;20126;-75
2022/05/25 07:51:28;;;;;;;0.90;0.50;;;22.90;94.40;;;;;;7401218;19;20142;-79
2022/05/25 07:53:57;;;;;;;2.83;0.68;;;22.10;95.30;;;;;;7391793;19;20175;-76
2022/05/25 07:56:29;;;;;;;1.33;0.55;;;21.40;96.20;;;;;;7392042;19;20606;-74
2022/05/25 07:59:03;;;;;;;0.47;0.47;;;21.20;96.40;;;;;;7390469;19;20126;-79
2022/05/25 08:07:10;;;;;;;0.98;0.60;;;21.90;94.90;;;;;;7396461;19;20131;-76
2022/05/25 08:09:36;;;;;;;1.58;0.50;;;22.20;94.80;;;;;;7395856;19;20469;-81
2022/05/25 08:12:06;;;;;;;1.23;0.60;;;22.90;94.40;;;;;;7389398;19;20720;-75
2022/05/25 08:14:32;;;;;;;1.75;0.60;;;22.90;93.90;;;;;;7389719;19;20132;-74
2022/05/25 08:16:58;;;;;;;1.33;0.93;;;22.60;94.20;;;;;;7389851;19;20501;-76
2022/05/25 08:19:24;;;;;;;0.63;0.60;;;22.90;94.00;;;;;;7389955;19;20624;-74
2022/05/25 08:21:52;;;;;;;0.95;0.60;;;22.70;94.10;;;;;;7392959;19;20126;-74
2022/05/25 08:24:19;;;;;;;2.60;0.95;;;22.50;94.00;;;;;;7393091;19;20345;-78
2022/05/25 08:26:49;;;;;;;1.73;0.63;;;22.10;93.60;;;;;;7391045;19;20139;-80
2022/05/25 08:29:15;;;;;;;1.70;0.77;;;22.00;93.60;;;;;;7388660;19;20139;-76
2022/05/25 08:31:41;;;;;;;1.42;0.60;;;22.00;93.40;;;;;;7389093;19;20159;-75
2022/05/25 08:34:08;;;;;;;2.65;0.63;;;21.90;93.70;;;;;;7389321;19;20155;-77
2022/05/25 08:36:34;;;;;;;1.35;0.70;;;22.10;93.50;;;;;;7392027;19;20146;-77
2022/05/25 08:39:01;;;;;;;0.55;0.45;;;21.90;93.70;;;;;;7391335;19;20130;-75
2022/05/25 08:41:33;;;;;;;1.67;0.70;;;21.70;93.80;;;;;;7396724;19;20146;-75
2022/05/25 08:44:01;;;;;;;1.58;0.50;;;21.30;94.10;;;;;;7385852;19;20130;-76
2022/05/25 08:46:32;;;;;;;0.80;0.40;;;21.10;94.60;;;;;;7389926;19;20174;-77
2022/05/25 08:49:06;;;;;;;1.10;0.68;;;21.30;94.60;;;;;;7387667;19;20410;-75
2022/05/25 08:51:39;;;;;;;0.88;0.73;;;21.70;94.30;;;;;;7393560;19;20134;-75
2022/05/25 08:54:05;;;;;;;0.55;0.50;;;21.70;94.30;;;;;;7393170;19;20122;-75
2022/05/25 08:56:45;;;;;;;0.40;0.40;;;21.60;94.20;;;;;;7392317;19;20454;-77
2022/05/25 08:59:35;;;;;;;2.33;0.80;;;21.30;94.40;;;;;;7397078;19;20167;-76
2022/05/25 09:02:28;;;;;;;1.98;0.90;;;21.10;95.50;;;;;;7399028;19;20368;-75
2022/05/25 09:05:21;;;;;;;0.88;0.77;;;21.10;96.10;;;;;;7391291;19;20146;-76
2022/05/25 09:08:26;;;;;;;2.47;0.80;;;21.00;95.00;;;;;;7394945;19;20150;-76
2022/05/25 09:10:58;;;;;;;1.13;0.68;;;20.80;95.30;;;;;;7397435;19;20636;-77
2022/05/25 09:13:32;;;;;;;0.80;0.60;;;21.10;95.60;;;;;;7399898;19;20158;-76
2022/05/25 09:16:16;;;;;;;0.85;0.50;;;21.50;94.50;;;;;;7399427;19;20154;-74
2022/05/25 09:18:51;;;;;;;0.40;0.40;;;21.30;94.50;;;;;;7401055;19;20490;-75
2022/05/25 09:21:21;;;;;;;1.50;0.73;;;20.80;94.20;;;;;;7397638;19;20516;-75
2022/05/25 09:23:51;;;;;;;1.10;0.50;;;20.40;95.10;;;;;;7396638;19;20143;-75
2022/05/25 09:26:17;;;;;;;1.60;0.57;;;20.60;94.30;;;;;;7397131;19;20162;-76
2022/05/25 09:28:45;;;;;;;2.72;0.65;;;20.70;94.30;;;;;;7397813;19;20146;-74
2022/05/25 09:31:15;;;;;;;2.25;0.60;;;20.80;94.40;;;;;;7398655;19;20164;-76
2022/05/25 09:33:44;;;;;;;1.67;0.73;;;20.90;94.00;;;;;;7409211;19;20131;-75
2022/05/25 09:36:21;;;;;;;0.63;0.40;;;20.80;94.10;;;;;;7399092;19;20135;-77
2022/05/25 09:39:15;;;;;;;1.88;0.80;;;21.00;94.40;;;;;;7396254;19;20496;-76
2022/05/25 09:41:45;;;;;;;2.67;0.60;;;21.50;93.20;;;;;;7397454;19;20138;-75
2022/05/25 09:44:16;;;;;;;2.10;1.73;;;21.60;93.90;;;;;;7396297;19;20154;-76
2022/05/25 09:47:03;;;;;;;1.23;0.80;;;21.70;94.30;;;;;;7395797;19;20139;-76
2022/05/25 09:49:40;;;;;;;1.45;0.50;;;21.70;94.10;;;;;;7396755;19;20245;-76
2022/05/25 09:52:18;;;;;;;1.25;0.40;;;21.80;93.50;;;;;;7397980;19;20278;-76
2022/05/25 09:54:55;;;;;;;0.68;0.40;;;21.70;93.30;;;;;;7397509;19;20597;-76
2022/05/25 09:57:34;;;;;;;0.50;0.45;;;21.50;93.30;;;;;;7397604;19;20947;-76
2022/05/25 10:00:28;;;;;;;1.20;0.90;;;21.60;94.20;;;;;;7397662;19;20138;-75
2022/05/25 10:03:05;;;;;;;1.67;1.00;;;21.90;93.60;;;;;;7395623;19;20147;-76
2022/05/25 10:05:35;;;;;;;1.30;0.82;;;22.00;93.10;;;;;;7401409;19;20150;-76
2022/05/25 10:08:15;;;;;;;0.52;0.52;;;22.10;92.60;;;;;;7392181;19;20206;-76
2022/05/25 10:10:55;;;;;;;0.90;0.63;;;22.00;92.80;;;;;;7383353;19;20146;-76
2022/05/25 10:13:23;;;;;;;0.73;0.45;;;22.10;93.00;;;;;;7389670;19;20142;-74
2022/05/25 10:17:47;;;;;;;1.38;0.63;;;22.20;92.60;;;;;;7291579;19;76894;-76
2022/05/25 10:20:42;;;;;;;0.40;0.40;;;22.10;91.80;;;;;;7424287;19;20134;-75
2022/05/25 10:23:27;;;;;;;0.55;0.40;;;22.00;91.10;;;;;;7427098;19;20245;-74
2022/05/25 10:25:56;;;;;;;2.15;0.70;;;21.40;91.30;;;;;;7426455;19;20134;-75
2022/05/25 10:28:22;;;;;;;1.70;0.50;;;21.80;92.40;;;;;;7423352;19;20150;-76
2022/05/25 10:36:59;;;;;;;0.88;0.50;;;22.20;91.10;;;;;;7424954;19;20157;-77
2022/05/25 10:39:36;;;;;;;0.68;0.47;;;22.00;91.40;;;;;;7423976;19;20362;-75
2022/05/25 10:42:44;;;;;;;0.63;0.52;;;21.50;92.00;;;;;;7430396;19;20150;-75
2022/05/25 10:45:22;;;;;;;0.90;0.70;;;21.10;92.10;;;;;;7424552;19;20142;-78
2022/05/25 10:48:07;;;;;;;0.50;0.32;;;20.90;92.70;;;;;;7424663;19;20163;-74
2022/05/25 10:50:45;;;;;;;0.65;0.50;;;21.00;92.30;;;;;;7421712;19;20134;-78
2022/05/25 10:54:44;;;;;;;3.85;0.60;;;20.80;92.10;;;;;;7424689;19;20145;-76
2022/05/25 10:57:14;;;;;;;0.85;0.30;;;20.80;92.10;;;;;;7424544;19;20138;-82
2022/05/25 10:59:56;;;;;;;1.95;0.68;;;20.60;92.80;;;;;;7418080;19;20183;-76
2022/05/25 11:02:40;;;;;;;0.55;0.30;;;20.80;93.20;;;;;;7425135;19;20609;-77
2022/05/25 11:05:24;;;;;;;0.65;0.40;;;21.20;92.80;;;;;;7424187;19;20154;-76
2022/05/25 11:07:54;;;;;;;0.73;0.40;;;21.60;91.60;;;;;;7426003;19;20146;-76
2022/05/25 11:10:39;;;;;;;0.50;0.40;;;21.70;91.70;;;;;;7424453;19;20262;-78
2022/05/25 11:13:05;;;;;;;0.73;0.45;;;21.60;91.60;;;;;;7427185;19;20141;-75
2022/05/25 11:15:52;;;;;;;1.00;0.40;;;21.50;91.60;;;;;;7425343;19;20150;-76
2022/05/25 11:18:39;;;;;;;2.17;0.82;;;21.40;92.80;;;;;;7434504;19;20138;-75
2022/05/25 11:21:29;;;;;;;3.58;0.75;;;21.50;92.40;;;;;;7426033;19;20142;-77
2022/05/25 11:23:58;;;;;;;1.05;0.60;;;21.50;92.30;;;;;;7430386;19;20130;-76
2022/05/25 11:26:43;;;;;;;0.70;0.50;;;21.50;91.60;;;;;;7421904;19;20585;-76
2022/05/25 11:29:08;;;;;;;1.55;0.63;;;21.30;91.90;;;;;;7395495;19;20147;-75
2022/05/25 11:31:54;;;;;;;0.77;0.68;;;21.30;92.30;;;;;;7393835;19;20157;-75
2022/05/25 11:34:23;;;;;;;0.75;0.63;;;21.20;92.50;;;;;;7400012;19;20514;-78
2022/05/25 11:37:19;;;;;;;2.53;0.73;;;21.20;93.40;;;;;;7399627;19;20216;-77
2022/05/25 11:40:21;;;;;;;1.10;0.50;;;20.80;93.50;;;;;;7395305;19;20142;-76
2022/05/25 11:43:25;;;;;;;2.28;0.70;;;21.10;92.10;;;;;;7395568;19;20164;-77
2022/05/25 11:46:03;;;;;;;1.27;0.60;;;21.30;91.90;;;;;;7394438;19;20530;-76
2022/05/25 11:49:06;;;;;;;1.67;0.65;;;21.30;92.80;;;;;;7400043;19;20130;-76
2022/05/25 11:51:35;;;;;;;0.68;0.50;;;21.60;91.70;;;;;;7396496;19;20165;-77
2022/05/25 11:54:30;;;;;;;0.30;0.30;;;21.80;91.20;;;;;;7396966;19;20138;-76
2022/05/25 11:57:02;;;;;;;0.75;0.50;;;21.80;91.60;;;;;;7395367;19;20639;-76
2022/05/25 11:59:37;;;;;;;0.60;0.60;;;22.00;91.00;;;;;;7395994;19;20163;-76
2022/05/25 12:02:21;;;;;;;1.20;0.60;;;22.10;90.90;;;;;;7396486;19;20205;-76
2022/05/25 12:05:10;;;;;;;1.40;0.55;;;22.10;90.20;;;;;;7395721;19;20157;-76
2022/05/25 12:07:54;;;;;;;6.53;1.45;;;21.90;90.70;;;;;;7397107;19;20130;-77
2022/05/25 12:10:41;;;;;;;1.65;0.80;;;21.80;91.60;;;;;;7400310;19;20142;-75
2022/05/25 12:13:36;;;;;;;1.55;0.70;;;21.80;91.10;;;;;;7395334;19;20135;-76
2022/05/25 12:16:17;;;;;;;2.58;0.60;;;21.80;91.00;;;;;;7394447;19;20624;-78
2022/05/25 12:18:49;;;;;;;7.47;1.27;;;21.80;91.70;;;;;;7397606;19;20158;-76
2022/05/25 12:21:30;;;;;;;2.47;0.80;;;21.90;92.40;;;;;;7397761;19;20633;-76
2022/05/25 12:24:03;;;;;;;1.55;0.50;;;22.10;90.90;;;;;;7397836;19;20138;-78
2022/05/25 12:26:36;;;;;;;1.60;0.93;;;22.30;90.80;;;;;;7400790;19;20138;-76
2022/05/25 12:29:24;;;;;;;8.23;0.77;;;22.50;90.40;;;;;;7396069;19;20638;-77
2022/05/25 12:31:55;;;;;;;1.70;0.40;;;22.60;89.50;;;;;;7395342;19;20151;-75
2022/05/25 12:34:30;;;;;;;5.97;0.80;;;22.40;88.50;;;;;;7396672;19;20182;-79
2022/05/25 12:36:57;;;;;;;2.83;0.93;;;22.70;88.40;;;;;;7394410;19;20126;-77
2022/05/25 12:39:42;;;;;;;0.70;0.50;;;22.70;90.10;;;;;;7388319;19;20158;-79
2022/05/25 12:42:23;;;;;;;3.00;0.43;;;22.70;90.20;;;;;;7399187;19;20625;-79
2022/05/25 12:50:33;;;;;;;2.08;0.80;;;22.90;87.40;;;;;;7393828;19;20158;-76
2022/05/25 12:53:26;;;;;;;1.00;0.60;;;22.50;87.60;;;;;;7393513;19;20363;-77
2022/05/25 12:56:16;;;;;;;0.93;0.70;;;22.40;89.30;;;;;;7395183;19;20396;-79
2022/05/25 12:58:51;;;;;;;1.00;0.77;;;22.60;88.40;;;;;;7395790;19;20134;-77
2022/05/25 13:01:23;;;;;;;1.20;0.88;;;22.70;88.10;;;;;;7394790;19;20845;-76
2022/05/25 13:03:49;;;;;;;2.63;1.10;;;22.60;87.60;;;;;;7392126;19;20154;-78
2022/05/25 13:06:17;;;;;;;0.90;0.70;;;22.40;88.40;;;;;;7393800;19;20611;-76
2022/05/25 13:08:55;;;;;;;0.93;0.50;;;22.40;88.80;;;;;;7394137;19;20130;-77
2022/05/25 13:11:45;;;;;;;1.35;0.60;;;22.50;87.40;;;;;;7394559;19;20446;-78
2022/05/25 13:14:16;;;;;;;0.95;0.65;;;22.30;87.20;;;;;;7396191;19;20229;-77
2022/05/25 13:16:42;;;;;;;1.27;0.60;;;22.20;87.80;;;;;;7399422;19;20191;-77
2022/05/25 13:19:18;;;;;;;1.67;0.70;;;22.10;87.90;;;;;;7393324;19;20392;-78
2022/05/25 13:22:20;;;;;;;1.02;0.60;;;22.10;87.90;;;;;;7397445;19;20194;-79
2022/05/25 13:24:58;;;;;;;2.70;0.60;;;22.30;89.50;;;;;;7394115;19;20494;-75
2022/05/25 13:28:02;;;;;;;0.73;0.57;;;22.60;87.40;;;;;;7395210;19;20231;-76
2022/05/25 13:30:31;;;;;;;1.00;0.50;;;22.60;86.80;;;;;;7393159;19;20162;-78
2022/05/25 13:33:01;;;;;;;1.08;0.47;;;22.50;86.50;;;;;;7394513;19;20628;-77
2022/05/25 13:35:37;;;;;;;0.80;0.50;;;22.40;87.60;;;;;;7399751;19;20131;-74
2022/05/25 13:38:21;;;;;;;1.10;0.40;;;22.50;87.70;;;;;;7394169;19;20150;-78
2022/05/25 13:40:52;;;;;;;0.73;0.50;;;22.50;87.00;;;;;;7393367;19;20170;-77
2022/05/25 13:43:37;;;;;;;0.43;0.40;;;22.60;86.40;;;;;;7391784;19;20130;-77
2022/05/25 13:46:09;;;;;;;0.77;0.50;;;22.80;86.30;;;;;;7393362;19;20150;-78
2022/05/25 13:48:36;;;;;;;0.57;0.52;;;22.70;85.90;;;;;;7388684;19;20594;-76
2022/05/25 13:51:02;;;;;;;1.80;0.43;;;22.50;86.80;;;;;;7388960;19;20669;-77